Time;durP1;ratioP1;P1;durP2;ratioP2;P2;SDS_P1;SDS_P2;PMS_P1;PMS_P2;Temp;Humidity;BMP_temperature;BMP_pressure;BME280_temperature;BME280_humidity;BME280_pressure;Samples;Min_cycle;Max_cycle;Signal;HPM_P1;HPM_P2
2022/05/07 00:02:17;;;;;;;11.05;5.40;;;;;;;7.51;54.34;101225.67;1744604;80;20981;-66
2022/05/07 00:04:46;;;;;;;8.40;5.58;;;;;;;7.48;54.59;101226.69;1769203;80;21099;-72
2022/05/07 00:07:13;;;;;;;17.57;5.60;;;;;;;7.43;54.72;101223.44;1762063;80;21794;-70
2022/05/07 00:09:40;;;;;;;9.83;5.37;;;;;;;7.41;54.74;101231.88;1738082;82;20962;-66
2022/05/07 00:12:10;;;;;;;12.35;6.30;;;;;;;7.40;54.72;101228.41;1725136;81;21052;-66
2022/05/07 00:14:39;;;;;;;12.23;5.92;;;;;;;7.41;54.65;101226.63;1765294;80;20925;-66
2022/05/07 00:19:53;;;;;;;12.18;6.40;;;;;;;7.35;54.94;101229.59;1763361;81;21961;-66
2022/05/07 00:22:20;;;;;;;10.08;5.80;;;;;;;7.31;54.99;101231.52;1768429;80;20972;-66
2022/05/07 00:24:48;;;;;;;18.23;6.28;;;;;;;7.27;54.93;101235.24;1748894;80;20982;-65
2022/05/07 00:27:16;;;;;;;10.00;5.85;;;;;;;7.23;55.00;101232.37;1733012;82;21050;-66
2022/05/07 00:29:43;;;;;;;11.63;6.10;;;;;;;7.19;55.09;101229.53;1761754;80;21120;-66
2022/05/07 00:32:11;;;;;;;13.13;6.05;;;;;;;7.19;55.09;101228.22;1762007;80;21933;-68
2022/05/07 00:34:40;;;;;;;12.00;6.45;;;;;;;7.21;55.16;101228.12;1759399;80;20952;-65
2022/05/07 00:37:08;;;;;;;11.05;6.28;;;;;;;7.19;55.12;101228.22;1759383;81;20980;-66
2022/05/07 00:39:36;;;;;;;10.35;5.80;;;;;;;7.16;55.24;101227.07;1758312;81;21514;-65
2022/05/07 00:42:06;;;;;;;13.72;6.15;;;;;;;7.13;55.28;101227.20;1758892;80;21039;-65
2022/05/07 00:44:33;;;;;;;11.60;6.50;;;;;;;7.10;55.31;101229.53;1758192;81;21831;-66
2022/05/07 00:47:24;;;;;;;10.43;6.30;;;;;;;7.08;55.35;101219.58;1731393;81;20988;-66
2022/05/07 00:52:24;;;;;;;11.88;7.15;;;;;;;7.07;55.53;101226.23;1708822;81;21021;-65
2022/05/07 00:54:51;;;;;;;11.05;7.35;;;;;;;7.05;55.58;101217.58;1749515;81;20968;-66
2022/05/07 00:57:19;;;;;;;11.50;7.53;;;;;;;7.04;55.54;101211.45;1735820;80;22009;-65
2022/05/07 00:59:47;;;;;;;17.40;7.67;;;;;;;7.03;55.54;101223.35;1759924;81;21422;-65
2022/05/07 01:02:14;;;;;;;14.40;7.80;;;;;;;6.97;55.58;101213.18;1720296;81;21056;-66
2022/05/07 01:04:42;;;;;;;17.15;7.97;;;;;;;6.92;55.68;101213.86;1741049;80;21044;-66
2022/05/07 01:07:10;;;;;;;15.98;8.05;;;;;;;6.88;55.77;101213.18;1715642;83;20985;-65
2022/05/07 01:09:37;;;;;;;14.50;8.38;;;;;;;6.83;55.81;101210.77;1771517;80;21835;-66
2022/05/07 01:12:07;;;;;;;13.78;8.30;;;;;;;6.81;55.58;101209.16;1765257;80;20972;-66
2022/05/07 01:14:35;;;;;;;13.90;7.87;;;;;;;6.78;55.49;101203.60;1760398;81;21461;-65
2022/05/07 01:17:07;;;;;;;12.88;8.28;;;;;;;6.75;55.44;101207.67;1759827;80;20940;-66
2022/05/07 01:19:35;;;;;;;13.03;8.45;;;;;;;6.75;55.72;101204.20;1695994;80;21005;-67
2022/05/07 01:22:03;;;;;;;13.48;9.00;;;;;;;6.70;56.09;101207.08;1759645;80;22550;-65
2022/05/07 01:24:31;;;;;;;17.17;9.33;;;;;;;6.68;56.11;101209.39;1757700;80;20954;-65
2022/05/07 01:26:58;;;;;;;17.40;9.78;;;;;;;6.66;55.71;101208.16;1759641;80;20965;-69
2022/05/07 01:29:26;;;;;;;17.35;10.20;;;;;;;6.68;55.29;101211.55;1730526;81;21061;-65
2022/05/07 01:31:54;;;;;;;16.37;10.18;;;;;;;6.71;55.06;101210.55;1752199;81;21039;-65
2022/05/07 01:34:21;;;;;;;18.92;10.05;;;;;;;6.73;55.04;101212.16;1759813;81;21883;-65
2022/05/07 01:36:50;;;;;;;17.52;10.08;;;;;;;6.70;55.10;101212.32;1748013;80;21052;-66
2022/05/07 01:39:18;;;;;;;17.02;10.65;;;;;;;6.69;55.23;101206.69;1729825;83;20961;-65
2022/05/07 01:41:46;;;;;;;18.40;11.33;;;;;;;6.68;55.35;101211.55;1729718;83;20997;-65
2022/05/07 01:44:13;;;;;;;18.12;10.70;;;;;;;6.69;55.11;101213.72;1730284;81;21111;-66
2022/05/07 01:49:29;;;;;;;19.98;11.57;;;;;;;6.68;54.80;101203.68;1790034;80;21339;-65
2022/05/07 01:51:57;;;;;;;22.98;11.65;;;;;;;6.69;54.50;101205.38;1760599;80;21010;-70
2022/05/07 01:54:27;;;;;;;19.98;11.50;;;;;;;6.70;54.36;101199.20;1733229;81;20979;-66
2022/05/07 01:56:54;;;;;;;24.55;11.70;;;;;;;6.71;54.30;101207.92;1744229;81;21055;-66
2022/05/07 01:59:22;;;;;;;19.90;11.57;;;;;;;6.69;54.31;101201.91;1759597;81;21841;-65
2022/05/07 02:01:51;;;;;;;21.40;12.43;;;;;;;6.64;54.53;101203.89;1759410;80;20981;-65
2022/05/07 02:04:19;;;;;;;18.55;11.55;;;;;;;6.59;54.78;101205.45;1759872;80;20980;-66
2022/05/07 02:06:46;;;;;;;22.20;12.28;;;;;;;6.54;55.06;101204.34;1746706;80;20993;-66
2022/05/07 02:09:13;;;;;;;22.67;12.45;;;;;;;6.52;55.29;101200.95;1753733;81;20948;-65
2022/05/07 02:11:42;;;;;;;22.07;12.37;;;;;;;6.49;55.40;101193.25;1731595;80;21859;-68
2022/05/07 02:14:10;;;;;;;24.15;11.90;;;;;;;6.45;55.80;101197.39;1760354;80;21012;-66
2022/05/07 02:16:39;;;;;;;19.35;11.80;;;;;;;6.39;56.05;101188.52;1759295;80;21002;-65
2022/05/07 02:19:06;;;;;;;22.55;12.50;;;;;;;6.33;56.31;101183.56;1791387;80;21004;-65
2022/05/07 02:21:33;;;;;;;24.07;12.75;;;;;;;6.29;56.40;101183.73;1759727;80;21061;-65
2022/05/07 02:24:01;;;;;;;23.00;12.73;;;;;;;6.25;56.36;101191.80;1773814;80;22003;-65
2022/05/07 02:26:28;;;;;;;28.47;13.50;;;;;;;6.21;56.30;101196.36;1761116;80;20961;-66
2022/05/07 02:28:55;;;;;;;20.88;12.18;;;;;;;6.18;56.38;101193.05;1733137;80;20943;-66
2022/05/07 02:31:23;;;;;;;20.72;12.30;;;;;;;6.13;56.45;101193.71;1771443;80;21459;-66
2022/05/07 02:33:51;;;;;;;19.85;11.93;;;;;;;6.09;56.79;101197.42;1757454;80;21016;-66
2022/05/07 02:36:19;;;;;;;22.37;11.60;;;;;;;6.05;57.10;101205.02;1730728;82;22462;-65
2022/05/07 02:38:48;;;;;;;21.87;12.37;;;;;;;6.06;57.12;101207.57;1722515;82;20988;-68
2022/05/07 02:44:02;;;;;;;18.95;11.63;;;;;;;6.15;56.89;101201.04;1736540;82;20970;-66
2022/05/07 02:46:29;;;;;;;19.45;11.60;;;;;;;6.17;56.93;101208.37;1742957;82;20969;-66
2022/05/07 02:48:57;;;;;;;18.23;11.35;;;;;;;6.16;57.25;101205.36;1745691;82;22503;-65
2022/05/07 02:51:25;;;;;;;20.32;11.30;;;;;;;6.11;57.56;101204.28;1704965;82;21000;-65
2022/05/07 02:53:54;;;;;;;18.27;10.90;;;;;;;6.06;57.74;101209.34;1741154;82;20973;-66
2022/05/07 02:56:22;;;;;;;22.07;11.68;;;;;;;6.03;57.89;101205.10;1751992;82;20958;-65
2022/05/07 02:58:50;;;;;;;22.65;11.75;;;;;;;6.00;58.01;101209.19;1747474;81;21001;-65
2022/05/07 03:01:19;;;;;;;20.72;10.50;;;;;;;5.98;58.11;101214.94;1723323;82;21909;-66
2022/05/07 03:03:46;;;;;;;23.10;11.05;;;;;;;5.96;58.12;101210.23;1732868;82;21010;-67
2022/05/07 03:06:17;;;;;;;20.68;10.93;;;;;;;5.94;58.12;101218.64;1735249;82;21064;-66
2022/05/07 03:08:45;;;;;;;18.05;11.10;;;;;;;5.95;58.15;101221.66;1706793;82;21019;-66
2022/05/07 03:11:13;;;;;;;16.32;10.58;;;;;;;5.95;58.26;101217.25;1732418;82;20949;-66
2022/05/07 03:13:42;;;;;;;17.27;10.28;;;;;;;5.96;58.44;101216.80;1739826;82;21922;-66
2022/05/07 03:16:09;;;;;;;17.20;10.38;;;;;;;5.97;58.65;101223.73;1725262;82;21412;-66
2022/05/07 03:18:36;;;;;;;17.92;10.65;;;;;;;5.96;58.87;101219.41;1723066;82;21088;-67
2022/05/07 03:21:03;;;;;;;18.23;10.13;;;;;;;5.96;59.06;101224.66;1724188;83;21397;-66
2022/05/07 03:23:32;;;;;;;17.85;10.60;;;;;;;5.95;59.06;101218.56;1732173;82;20997;-66
2022/05/07 03:26:01;;;;;;;17.90;10.18;;;;;;;5.99;58.92;101227.16;1740665;82;22515;-66
2022/05/07 03:28:29;;;;;;;20.20;10.75;;;;;;;5.98;58.91;101226.31;1738280;82;20953;-66
2022/05/07 03:30:57;;;;;;;19.35;10.58;;;;;;;6.00;58.96;101239.34;1735868;82;21122;-66
2022/05/07 03:33:25;;;;;;;17.25;9.85;;;;;;;6.04;59.04;101235.64;1723399;82;21022;-76
2022/05/07 03:35:52;;;;;;;20.60;11.10;;;;;;;6.08;59.11;101239.84;1740637;80;21399;-66
2022/05/07 03:38:20;;;;;;;18.95;10.20;;;;;;;6.12;59.05;101240.08;1737620;81;21794;-67
2022/05/07 03:40:52;;;;;;;18.80;10.60;;;;;;;6.19;58.94;101241.95;1727828;83;20956;-66
2022/05/07 03:43:21;;;;;;;20.97;10.98;;;;;;;6.23;58.97;101244.34;1743973;81;20968;-67
2022/05/07 03:45:48;;;;;;;19.37;9.63;;;;;;;6.31;58.86;101248.77;1752348;81;21302;-66
2022/05/07 03:48:16;;;;;;;18.05;9.98;;;;;;;6.42;58.88;101244.78;1753710;80;21021;-67
2022/05/07 03:50:45;;;;;;;18.05;10.78;;;;;;;6.53;59.00;101239.86;1751690;82;21799;-66
2022/05/07 03:53:32;;;;;;;20.65;11.80;;;;;;;6.64;58.96;101241.48;1748518;81;21084;-66
2022/05/07 03:56:06;;;;;;;24.02;11.73;;;;;;;6.77;58.50;101247.86;1749104;80;21048;-66
2022/05/07 03:58:35;;;;;;;20.75;11.35;;;;;;;6.96;58.18;101243.00;1734230;81;21055;-66
2022/05/07 04:01:03;;;;;;;23.18;11.78;;;;;;;7.11;57.81;101244.36;1781790;80;20984;-66
2022/05/07 04:03:31;;;;;;;24.87;12.80;;;;;;;7.28;57.44;101250.54;1773897;80;21436;-66
2022/05/07 04:05:59;;;;;;;21.95;12.63;;;;;;;7.43;56.92;101248.41;1739622;81;20945;-65
2022/05/07 04:08:27;;;;;;;25.40;13.60;;;;;;;7.61;56.22;101248.76;1750303;80;20993;-67
2022/05/07 04:10:55;;;;;;;28.52;13.93;;;;;;;7.79;55.57;101246.94;1727815;83;21019;-66
2022/05/07 04:13:24;;;;;;;31.45;14.65;;;;;;;7.96;54.94;101238.98;1743079;81;21035;-66
2022/05/07 04:15:56;;;;;;;26.75;14.05;;;;;;;8.14;54.46;101237.59;1758100;81;21990;-66
2022/05/07 04:18:25;;;;;;;22.45;14.00;;;;;;;8.30;54.00;101231.39;1756490;80;21396;-69
2022/05/07 04:20:56;;;;;;;26.35;13.68;;;;;;;8.47;53.28;101238.34;1727916;83;20995;-66
2022/05/07 04:23:23;;;;;;;23.38;13.68;;;;;;;8.64;52.75;101241.34;1752387;80;21509;-66
2022/05/07 04:25:51;;;;;;;26.85;13.75;;;;;;;8.80;52.23;101239.53;1753345;81;21408;-67
2022/05/07 04:28:20;;;;;;;26.37;12.07;;;;;;;8.95;51.75;101235.13;1720147;82;21832;-66
2022/05/07 04:30:49;;;;;;;29.85;12.65;;;;;;;9.13;51.27;101237.16;1753251;81;20960;-66
2022/05/07 04:33:18;;;;;;;21.25;12.03;;;;;;;9.33;50.07;101241.23;1751975;80;20997;-66
2022/05/07 04:35:48;;;;;;;25.95;12.13;;;;;;;9.55;49.67;101242.08;1762469;80;21186;-66
2022/05/07 04:38:17;;;;;;;24.72;11.90;;;;;;;9.74;49.17;101239.53;1763289;80;21052;-66
2022/05/07 04:40:46;;;;;;;21.33;10.78;;;;;;;9.93;48.76;101237.91;1763023;81;21876;-66
2022/05/07 04:43:18;;;;;;;20.00;10.45;;;;;;;10.11;48.40;101238.55;1766521;80;21000;-66
2022/05/07 04:45:45;;;;;;;22.52;11.08;;;;;;;10.27;47.83;101235.81;1765140;80;21005;-66
2022/05/07 04:48:14;;;;;;;18.32;10.23;;;;;;;10.47;47.25;101236.69;1737300;81;21054;-66
2022/05/07 04:50:41;;;;;;;17.57;9.28;;;;;;;10.70;46.00;101240.92;1760854;80;21044;-66
2022/05/07 04:53:12;;;;;;;18.32;8.65;;;;;;;10.96;44.88;101237.88;1743928;80;21754;-67
2022/05/07 04:55:41;;;;;;;16.95;8.88;;;;;;;11.23;43.83;101237.34;1756108;80;20964;-66
2022/05/07 04:58:08;;;;;;;19.82;9.33;;;;;;;11.44;42.65;101234.53;1730812;80;21027;-68
2022/05/07 05:00:37;;;;;;;16.62;8.98;;;;;;;11.63;42.71;101242.52;1771031;80;21006;-68
2022/05/07 05:03:20;;;;;;;17.52;8.50;;;;;;;11.81;42.44;101242.58;1765096;80;21107;-66
2022/05/07 05:05:56;;;;;;;14.38;8.30;;;;;;;12.00;42.33;101240.31;1761004;81;22429;-67
2022/05/07 05:08:43;;;;;;;17.80;8.75;;;;;;;12.16;41.98;101242.72;1760428;81;22264;-66
2022/05/07 05:11:10;;;;;;;21.02;9.03;;;;;;;12.32;41.28;101237.13;1761644;80;21087;-66
2022/05/07 05:13:37;;;;;;;16.82;9.40;;;;;;;12.44;41.11;101243.33;1762982;81;21008;-66
2022/05/07 05:16:05;;;;;;;18.00;9.30;;;;;;;12.55;40.53;101244.26;1763003;81;20931;-66
2022/05/07 05:18:45;;;;;;;13.53;7.92;;;;;;;12.68;40.92;101240.69;1747861;80;21964;-66
2022/05/07 05:21:14;;;;;;;16.97;8.23;;;;;;;12.82;40.36;101248.45;1745414;81;21088;-67
2022/05/07 05:23:53;;;;;;;15.40;8.15;;;;;;;12.98;39.01;101249.47;1739797;82;21084;-66
2022/05/07 05:26:20;;;;;;;17.17;8.43;;;;;;;13.08;38.67;101239.38;1739239;81;21021;-66
2022/05/07 05:28:51;;;;;;;15.45;8.08;;;;;;;13.15;38.84;101239.28;1762626;80;20948;-67
2022/05/07 05:31:19;;;;;;;16.23;8.33;;;;;;;13.21;37.89;101242.44;1737285;82;22427;-74
2022/05/07 05:33:48;;;;;;;17.45;8.50;;;;;;;13.24;38.24;101240.91;1728151;81;21101;-67
2022/05/07 05:36:17;;;;;;;18.42;8.35;;;;;;;13.29;37.56;101250.17;1746260;81;21420;-67
2022/05/07 05:38:46;;;;;;;17.37;8.78;;;;;;;13.33;37.80;101246.34;1745286;81;21020;-67
2022/05/07 05:41:14;;;;;;;19.10;8.55;;;;;;;13.37;38.01;101248.27;1732084;82;21482;-67
2022/05/07 05:43:44;;;;;;;20.32;8.95;;;;;;;13.39;37.47;101245.85;1732022;81;21904;-67
2022/05/07 05:46:14;;;;;;;14.35;7.90;;;;;;;13.41;37.90;101243.95;1735075;81;21048;-67
2022/05/07 05:48:42;;;;;;;16.45;8.33;;;;;;;13.43;38.19;101253.11;1729610;81;21125;-67
2022/05/07 05:51:09;;;;;;;18.87;7.85;;;;;;;13.44;37.91;101252.15;1731407;81;21132;-68
2022/05/07 05:53:39;;;;;;;15.95;7.65;;;;;;;13.42;37.99;101257.58;1752180;81;22080;-67
2022/05/07 05:56:07;;;;;;;15.45;7.78;;;;;;;13.44;37.74;101253.48;1726812;81;21822;-67
2022/05/07 05:58:39;;;;;;;15.75;7.37;;;;;;;13.48;37.52;101253.59;1724833;81;20994;-72
2022/05/07 06:01:09;;;;;;;15.20;7.03;;;;;;;13.58;37.52;101262.52;1758513;81;21020;-67
2022/05/07 06:03:38;;;;;;;16.62;7.60;;;;;;;13.69;37.76;101259.88;1755850;80;21440;-68
2022/05/07 06:06:05;;;;;;;16.05;7.33;;;;;;;13.83;37.20;101254.81;1759029;81;20981;-70
2022/05/07 06:08:33;;;;;;;13.20;8.05;;;;;;;14.01;36.46;101257.34;1751896;81;22613;-68
2022/05/07 06:11:02;;;;;;;18.35;8.15;;;;;;;14.19;36.49;101256.84;1748396;81;21021;-67
2022/05/07 06:13:33;;;;;;;19.45;7.58;;;;;;;14.35;35.80;101256.43;1727624;81;21504;-72
2022/05/07 06:16:00;;;;;;;13.05;8.15;;;;;;;14.47;36.33;101258.11;1723197;81;21448;-68
2022/05/07 06:18:29;;;;;;;17.37;8.35;;;;;;;14.57;36.22;101257.27;1730711;82;21076;-68
2022/05/07 06:21:01;;;;;;;22.35;9.05;;;;;;;14.69;35.92;101258.55;1757395;81;21761;-67
2022/05/07 06:23:28;;;;;;;19.02;9.08;;;;;;;14.75;36.86;101262.84;1720290;83;21030;-67
2022/05/07 06:28:45;;;;;;;16.57;8.60;;;;;;;14.84;38.04;101264.75;1733144;82;21018;-68
2022/05/07 06:31:17;;;;;;;21.25;9.10;;;;;;;14.95;38.31;101265.67;1731471;81;21083;-73
2022/05/07 06:33:45;;;;;;;24.70;10.03;;;;;;;15.08;38.86;101269.85;1735876;81;21868;-68
2022/05/07 06:36:14;;;;;;;20.15;9.55;;;;;;;15.21;39.11;101265.66;1743811;81;21036;-68
2022/05/07 06:38:42;;;;;;;28.85;9.75;;;;;;;15.29;38.92;101263.19;1758910;81;21070;-67
2022/05/07 06:41:11;;;;;;;16.07;8.85;;;;;;;15.34;39.18;101266.30;1748252;81;21435;-68
2022/05/07 06:43:47;;;;;;;25.75;9.10;;;;;;;15.42;39.06;101268.30;1754575;81;20984;-67
2022/05/07 06:46:21;;;;;;;22.27;8.98;;;;;;;15.51;38.17;101268.00;1741843;81;21819;-67
2022/05/07 06:48:50;;;;;;;22.40;8.60;;;;;;;15.61;38.36;101266.27;1740569;81;20956;-67
2022/05/07 06:51:20;;;;;;;15.93;8.38;;;;;;;15.74;38.56;101265.58;1742644;81;20957;-66
2022/05/07 06:53:47;;;;;;;18.10;8.25;;;;;;;15.86;38.27;101269.83;1747930;81;21495;-67
2022/05/07 06:56:14;;;;;;;17.25;7.10;;;;;;;15.99;38.29;101264.26;1738230;81;21047;-67
2022/05/07 06:58:42;;;;;;;18.17;8.08;;;;;;;16.13;37.24;101263.06;1740357;81;21813;-68
2022/05/07 07:01:13;;;;;;;16.27;7.45;;;;;;;16.25;37.46;101265.47;1723961;81;21396;-69
2022/05/07 07:03:41;;;;;;;17.48;8.25;;;;;;;16.35;36.57;101260.16;1744275;81;21063;-68
2022/05/07 07:06:08;;;;;;;14.75;8.48;;;;;;;16.39;37.97;101261.55;1744685;81;21059;-71
2022/05/07 07:08:35;;;;;;;20.10;7.78;;;;;;;16.46;38.80;101263.19;1738430;81;20967;-69
2022/05/07 07:11:03;;;;;;;14.58;8.23;;;;;;;16.51;38.58;101255.14;1743120;81;22562;-69
2022/05/07 07:13:31;;;;;;;14.83;8.08;;;;;;;16.57;38.13;101255.89;1724906;82;21431;-68
2022/05/07 07:15:59;;;;;;;15.80;8.20;;;;;;;16.65;38.16;101257.03;1742561;81;20976;-68
2022/05/07 07:18:26;;;;;;;19.55;8.78;;;;;;;16.73;38.86;101253.22;1744581;81;21113;-69
2022/05/07 07:20:55;;;;;;;18.57;8.40;;;;;;;16.82;39.06;101251.88;1716438;81;38124;-69
2022/05/07 07:23:22;;;;;;;13.70;7.75;;;;;;;16.88;39.18;101251.78;1733333;81;22512;-68
2022/05/07 07:25:50;;;;;;;16.85;8.10;;;;;;;16.93;39.00;101243.37;1733768;81;21392;-68
2022/05/07 07:28:17;;;;;;;13.95;8.33;;;;;;;16.99;38.63;101237.48;1734180;81;21048;-67
2022/05/07 07:30:44;;;;;;;11.85;5.83;;;;;;;17.12;38.73;101237.52;1748738;81;21050;-66
2022/05/07 07:33:19;;;;;;;8.45;4.40;;;;;;;17.23;36.75;101235.67;1742427;81;20969;-67
2022/05/07 07:35:49;;;;;;;9.80;5.78;;;;;;;17.30;31.89;101238.13;1740512;81;21870;-67
2022/05/07 07:38:15;;;;;;;14.20;8.13;;;;;;;17.40;33.42;101240.27;1742317;81;20906;-69
2022/05/07 07:40:49;;;;;;;19.90;8.00;;;;;;;17.49;37.48;101241.23;1739213;81;20970;-67
2022/05/07 07:43:12;;;;;;;22.48;8.55;;;;;;;17.52;39.49;101236.44;1757401;81;21514;-66
2022/05/07 07:48:30;;;;;;;12.05;5.60;;;;;;;17.61;38.65;101236.05;1734581;81;21862;-66
2022/05/07 07:50:58;;;;;;;9.17;5.10;;;;;;;17.68;35.34;101226.47;1697201;81;21461;-69
2022/05/07 07:53:33;;;;;;;16.52;7.67;;;;;;;17.82;34.30;101229.17;1748144;81;21140;-66
2022/05/07 07:56:02;;;;;;;13.35;6.08;;;;;;;17.94;36.13;101237.33;1715177;81;21038;-66
2022/05/07 07:58:31;;;;;;;12.85;6.37;;;;;;;18.00;36.29;101231.41;1738455;81;20989;-67
2022/05/07 08:00:59;;;;;;;13.30;6.12;;;;;;;18.05;36.24;101229.61;1685450;81;22557;-67
2022/05/07 08:03:31;;;;;;;14.28;6.85;;;;;;;18.09;36.44;101224.33;1749978;81;21008;-66
2022/05/07 08:05:59;;;;;;;14.15;6.90;;;;;;;18.16;36.85;101224.92;1707196;81;21040;-69
2022/05/07 08:14:09;;;;;;;12.65;5.40;;;;;;;18.29;29.33;101215.19;1732705;81;21868;-74
2022/05/07 08:16:37;;;;;;;12.03;5.03;;;;;;;18.37;29.53;101221.96;1708328;81;21110;-69
2022/05/07 08:19:04;;;;;;;8.58;4.87;;;;;;;18.47;28.60;101225.91;1734671;81;21003;-68
2022/05/07 08:21:31;;;;;;;7.42;4.10;;;;;;;18.58;29.38;101221.16;1735414;81;21474;-68
2022/05/07 08:23:59;;;;;;;13.32;5.90;;;;;;;18.67;27.56;101216.76;1735304;82;20898;-69
2022/05/07 08:26:25;;;;;;;12.88;6.22;;;;;;;18.72;32.18;101219.83;1728419;82;22571;-70
2022/05/07 08:28:53;;;;;;;14.30;5.83;;;;;;;18.77;34.47;101215.33;1735659;81;21020;-72
2022/05/07 08:31:23;;;;;;;11.25;5.90;;;;;;;18.88;33.32;101225.80;1736403;81;21075;-70
2022/05/07 08:33:51;;;;;;;13.75;5.95;;;;;;;18.99;33.09;101213.50;1761254;81;21535;-72
2022/05/07 08:36:17;;;;;;;10.78;5.87;;;;;;;19.03;29.56;101208.69;1761003;80;21427;-69
2022/05/07 08:38:44;;;;;;;12.23;5.87;;;;;;;19.06;27.91;101203.02;1775007;80;21811;-70
2022/05/07 08:41:11;;;;;;;15.88;6.20;;;;;;;19.03;26.70;101205.52;1741875;81;21605;-71
2022/05/07 08:43:41;;;;;;;12.85;6.03;;;;;;;18.94;27.37;101204.27;1752524;81;22062;-70
2022/05/07 08:46:16;;;;;;;10.38;6.05;;;;;;;18.95;27.14;101195.23;1756349;80;21027;-70
2022/05/07 08:48:46;;;;;;;11.05;6.25;;;;;;;19.03;27.72;101197.48;1755134;80;21042;-68
2022/05/07 08:51:17;;;;;;;12.80;6.50;;;;;;;19.15;28.26;101196.72;1719457;81;21833;-69
2022/05/07 08:53:48;;;;;;;10.85;6.47;;;;;;;19.28;29.55;101199.80;1755469;81;21352;-68
2022/05/07 08:56:15;;;;;;;13.08;6.10;;;;;;;19.39;29.40;101200.03;1700083;83;21127;-67
2022/05/07 08:58:53;;;;;;;12.25;6.25;;;;;;;19.55;29.05;101196.60;1722451;82;21095;-70
2022/05/07 09:01:20;;;;;;;12.53;6.50;;;;;;;19.68;27.85;101191.66;1711437;83;21050;-66
2022/05/07 09:03:48;;;;;;;14.33;6.50;;;;;;;19.72;27.62;101186.34;1702072;83;22742;-68
2022/05/07 09:06:25;;;;;;;12.15;5.87;;;;;;;19.72;28.24;101186.34;1701762;82;21078;-67
2022/05/07 09:08:53;;;;;;;13.88;5.62;;;;;;;19.76;30.76;101180.14;1751629;80;21019;-67
2022/05/07 09:11:20;;;;;;;12.55;5.28;;;;;;;19.62;32.52;101186.47;1724722;81;21031;-70
2022/05/07 09:13:47;;;;;;;9.70;5.05;;;;;;;19.54;31.99;101176.17;1753270;80;21023;-69
2022/05/07 09:16:14;;;;;;;12.73;5.37;;;;;;;19.43;33.05;101171.94;1754066;81;22028;-69
2022/05/07 09:18:48;;;;;;;11.83;5.17;;;;;;;19.54;33.90;101170.31;1761659;80;20949;-70
2022/05/07 09:21:20;;;;;;;9.55;5.00;;;;;;;19.64;32.47;101188.48;1693729;84;21580;-69
2022/05/07 09:24:00;;;;;;;12.78;4.87;;;;;;;19.63;33.41;101177.42;1751811;81;21510;-69
2022/05/07 09:26:39;;;;;;;13.70;4.35;;;;;;;19.59;33.20;101184.59;1748656;81;21477;-68
2022/05/07 09:29:11;;;;;;;13.78;5.12;;;;;;;19.55;34.28;101181.87;1757882;80;22502;-68
2022/05/07 09:31:41;;;;;;;9.75;4.85;;;;;;;19.40;35.18;101176.28;1754718;80;21533;-68
2022/05/07 09:37:20;;;;;;;12.93;4.45;;;;;;;19.29;36.20;101171.17;1737966;80;21090;-69
2022/05/07 09:39:49;;;;;;;11.93;4.37;;;;;;;19.39;35.59;101154.48;1750531;80;21032;-69
2022/05/07 09:42:20;;;;;;;10.48;4.33;;;;;;;19.54;36.08;101162.27;1735465;81;21831;-69
2022/05/07 09:44:47;;;;;;;12.58;4.90;;;;;;;19.81;35.28;101163.09;1755829;80;21029;-73
2022/05/07 09:47:14;;;;;;;14.95;5.47;;;;;;;20.03;34.50;101163.80;1758868;80;21006;-67
2022/05/07 09:50:20;;;;;;;7.35;4.60;;;;;;;20.18;34.69;101167.54;1732215;80;21027;-69
2022/05/07 09:52:12;;;;;;;10.13;5.00;;;;;;;20.27;34.00;101154.98;1750664;80;21039;-68
2022/05/07 09:57:33;;;;;;;16.45;5.17;;;;;;;20.24;32.25;101145.91;1762324;80;21026;-68
2022/05/07 10:00:13;;;;;;;13.10;5.40;;;;;;;20.01;32.98;101140.34;1764360;80;21096;-70
2022/05/07 10:03:09;;;;;;;9.85;5.47;;;;;;;19.97;33.26;101148.36;1750132;80;20996;-71
2022/05/07 10:05:54;;;;;;;15.55;5.97;;;;;;;20.04;32.33;101144.53;1742301;80;21063;-71
2022/05/07 10:08:45;;;;;;;15.30;6.70;;;;;;;20.05;33.62;101151.57;1762623;80;22497;-68
2022/05/07 10:11:13;;;;;;;12.95;6.00;;;;;;;19.98;32.27;101154.93;1756839;80;21667;-68
2022/05/07 10:13:40;;;;;;;11.30;6.15;;;;;;;19.99;33.54;101162.47;1753497;80;21083;-68
2022/05/07 10:16:07;;;;;;;11.53;6.30;;;;;;;20.21;32.86;101142.22;1728749;81;21046;-68
2022/05/07 10:18:38;;;;;;;11.53;6.60;;;;;;;20.40;33.09;101140.56;1729959;81;21353;-69
2022/05/07 10:21:15;;;;;;;11.12;5.72;;;;;;;20.67;33.79;101127.34;1752180;80;22417;-69
2022/05/07 10:23:56;;;;;;;13.58;5.83;;;;;;;20.94;34.27;101142.25;1757625;80;21594;-72
2022/05/07 10:26:26;;;;;;;9.13;5.50;;;;;;;21.13;33.37;101139.66;1760388;80;21067;-69
2022/05/07 10:28:52;;;;;;;10.30;6.37;;;;;;;21.33;32.94;101126.22;1754680;80;21395;-66
2022/05/07 10:31:23;;;;;;;14.55;6.80;;;;;;;21.46;32.33;101132.89;1754727;80;20927;-69
2022/05/07 10:33:50;;;;;;;15.48;6.50;;;;;;;21.48;31.62;101127.66;1732107;81;21926;-72
2022/05/07 10:36:21;;;;;;;11.00;6.65;;;;;;;21.37;32.16;101126.70;1742092;81;21107;-70
2022/05/07 10:38:49;;;;;;;10.25;6.47;;;;;;;21.33;31.65;101127.56;1729951;81;21044;-67
2022/05/07 10:41:23;;;;;;;12.63;6.97;;;;;;;21.28;31.31;101129.09;1728562;81;21167;-68
2022/05/07 10:44:05;;;;;;;11.10;6.85;;;;;;;21.10;31.47;101123.90;1724464;81;21091;-69
2022/05/07 10:46:40;;;;;;;11.65;6.15;;;;;;;21.18;31.69;101121.19;1726167;81;21833;-70
2022/05/07 10:49:18;;;;;;;11.10;5.37;;;;;;;21.33;31.35;101117.33;1736786;80;21631;-69
2022/05/07 10:51:53;;;;;;;10.75;5.08;;;;;;;21.40;31.88;101113.74;1751455;80;21248;-71
2022/05/07 10:54:31;;;;;;;11.68;5.33;;;;;;;21.28;31.19;101112.45;1717383;81;21115;-71
2022/05/07 10:57:05;;;;;;;11.25;5.40;;;;;;;21.09;31.81;101119.03;1730120;81;21028;-69
2022/05/07 10:59:33;;;;;;;10.58;5.65;;;;;;;20.99;32.11;101121.08;1754850;80;21785;-73
2022/05/07 11:02:11;;;;;;;11.78;5.97;;;;;;;21.00;32.06;101106.63;1753074;80;21483;-72
2022/05/07 11:04:43;;;;;;;11.78;5.28;;;;;;;20.99;31.21;101113.52;1728026;81;21055;-67
2022/05/07 11:07:10;;;;;;;9.88;4.97;;;;;;;20.83;32.18;101104.98;1739859;81;21070;-68
2022/05/07 11:09:37;;;;;;;9.20;4.53;;;;;;;20.83;32.52;101103.14;1759605;80;21019;-69
2022/05/07 11:12:06;;;;;;;8.13;3.98;;;;;;;21.03;31.81;101097.38;1759563;80;21956;-69
2022/05/07 11:14:35;;;;;;;10.15;4.70;;;;;;;21.22;32.49;101101.02;1758515;80;21557;-73
2022/05/07 11:17:04;;;;;;;7.47;4.15;;;;;;;21.32;31.66;101096.30;1741754;80;21026;-71
2022/05/07 11:19:37;;;;;;;11.70;4.70;;;;;;;21.42;31.66;101094.28;1751772;80;21030;-71
2022/05/07 11:22:06;;;;;;;9.83;4.20;;;;;;;21.54;31.37;101091.20;1755607;80;21035;-69
2022/05/07 11:24:32;;;;;;;7.05;4.42;;;;;;;21.53;31.23;101089.02;1759827;80;21842;-69
2022/05/07 11:27:02;;;;;;;12.58;3.67;;;;;;;21.50;30.90;101089.34;1750400;80;21085;-71
2022/05/07 11:29:30;;;;;;;8.03;3.30;;;;;;;21.40;31.27;101084.69;1732207;80;20984;-71
2022/05/07 11:31:59;;;;;;;7.05;3.33;;;;;;;21.43;31.22;101081.17;1757791;80;21051;-71
2022/05/07 11:34:33;;;;;;;12.10;4.12;;;;;;;21.37;31.08;101083.70;1751373;80;21064;-68
2022/05/07 11:37:20;;;;;;;7.85;3.50;;;;;;;21.39;31.32;101080.33;1779721;80;22469;-71
2022/05/07 11:39:59;;;;;;;8.75;3.55;;;;;;;21.43;31.24;101077.64;1709671;83;21478;-70
2022/05/07 11:42:46;;;;;;;9.68;3.83;;;;;;;21.51;30.80;101066.83;1697515;83;21064;-70
2022/05/07 11:45:26;;;;;;;5.92;2.80;;;;;;;21.70;30.66;101067.72;1711584;82;22197;-71
2022/05/07 11:48:04;;;;;;;6.50;2.80;;;;;;;21.99;30.84;101072.41;1721430;81;21302;-70
2022/05/07 11:50:39;;;;;;;7.30;2.87;;;;;;;22.20;30.19;101066.92;1691016;84;21819;-70
2022/05/07 11:53:17;;;;;;;9.80;2.60;;;;;;;22.42;30.09;101064.70;1700282;82;21123;-72
2022/05/07 11:55:46;;;;;;;4.50;2.10;;;;;;;22.61;29.25;101063.34;1731164;81;21025;-71
2022/05/07 11:58:20;;;;;;;8.98;2.60;;;;;;;22.70;29.40;101064.94;1728204;81;21357;-72
2022/05/07 12:00:49;;;;;;;6.50;2.72;;;;;;;22.70;30.00;101065.45;1725938;81;21447;-73